sensor_id;sensor_type;location;lat;lon;timestamp;pressure;altitude;pressure_sealevel;temperature;humidity
72548;BME280;60570;50.848;6.776;2023-03-18T00:00:15;99856.00;;;11.94;65.76
72548;BME280;60570;50.848;6.776;2023-03-18T00:01:18;99853.22;;;11.94;65.80
72548;BME280;60570;50.848;6.776;2023-03-18T00:02:19;99862.03;;;11.96;65.98
72548;BME280;60570;50.848;6.776;2023-03-18T00:03:20;99861.22;;;11.95;65.74
72548;BME280;60570;50.848;6.776;2023-03-18T00:04:21;99861.22;;;11.95;66.30
72548;BME280;60570;50.848;6.776;2023-03-18T00:05:23;99860.75;;;11.93;65.77
72548;BME280;60570;50.848;6.776;2023-03-18T00:06:24;99857.19;;;11.93;65.89
72548;BME280;60570;50.848;6.776;2023-03-18T00:07:24;99863.53;;;11.93;65.89
72548;BME280;60570;50.848;6.776;2023-03-18T00:08:25;99861.94;;;11.92;65.90
72548;BME280;60570;50.848;6.776;2023-03-18T00:09:25;99852.78;;;11.92;65.73
72548;BME280;60570;50.848;6.776;2023-03-18T00:10:26;99856.81;;;11.94;65.76
72548;BME280;60570;50.848;6.776;2023-03-18T00:11:26;99863.53;;;11.93;65.58
72548;BME280;60570;50.848;6.776;2023-03-18T00:12:27;99861.13;;;11.92;66.17
72548;BME280;60570;50.848;6.776;2023-03-18T00:13:27;99860.31;;;11.91;65.66
72548;BME280;60570;50.848;6.776;2023-03-18T00:14:27;99857.97;;;11.93;66.08
72548;BME280;60570;50.848;6.776;2023-03-18T00:15:29;99857.97;;;11.93;66.00
72548;BME280;60570;50.848;6.776;2023-03-18T00:16:29;99865.53;;;11.93;65.73
72548;BME280;60570;50.848;6.776;2023-03-18T00:17:30;99863.09;;;11.91;65.97
72548;BME280;60570;50.848;6.776;2023-03-18T00:18:31;99864.72;;;11.92;65.82
72548;BME280;60570;50.848;6.776;2023-03-18T00:19:33;99862.31;;;11.91;65.73
72548;BME280;60570;50.848;6.776;2023-03-18T00:20:33;99855.94;;;11.90;65.91
72548;BME280;60570;50.848;6.776;2023-03-18T00:21:40;99860.31;;;11.91;65.88
72548;BME280;60570;50.848;6.776;2023-03-18T00:22:41;99850.81;;;11.92;66.10
72548;BME280;60570;50.848;6.776;2023-03-18T00:23:42;99851.50;;;11.89;66.08
72548;BME280;60570;50.848;6.776;2023-03-18T00:24:43;99851.97;;;11.91;65.91
72548;BME280;60570;50.848;6.776;2023-03-18T00:25:46;99846.41;;;11.91;65.97
72548;BME280;60570;50.848;6.776;2023-03-18T00:26:47;99845.63;;;11.91;65.66
72548;BME280;60570;50.848;6.776;2023-03-18T00:27:48;99840.84;;;11.91;65.94
72548;BME280;60570;50.848;6.776;2023-03-18T00:28:49;99837.25;;;11.91;66.08
72548;BME280;60570;50.848;6.776;2023-03-18T00:29:49;99845.63;;;11.91;65.83
72548;BME280;60570;50.848;6.776;2023-03-18T00:30:50;99845.16;;;11.89;65.96
72548;BME280;60570;50.848;6.776;2023-03-18T00:31:51;99854.31;;;11.89;65.79
72548;BME280;60570;50.848;6.776;2023-03-18T00:32:51;99846.75;;;11.90;66.19
72548;BME280;60570;50.848;6.776;2023-03-18T00:33:52;99855.94;;;11.90;65.88
72548;BME280;60570;50.848;6.776;2023-03-18T00:34:53;99855.13;;;11.90;65.88
72548;BME280;60570;50.848;6.776;2023-03-18T00:35:53;99858.25;;;11.88;65.79
72548;BME280;60570;50.848;6.776;2023-03-18T00:36:54;99861.88;;;11.89;66.05
72548;BME280;60570;50.848;6.776;2023-03-18T00:37:56;99861.88;;;11.89;65.99
72548;BME280;60570;50.848;6.776;2023-03-18T00:39:03;99861.03;;;11.88;66.15
72548;BME280;60570;50.848;6.776;2023-03-18T00:40:06;99861.50;;;11.90;65.82
72548;BME280;60570;50.848;6.776;2023-03-18T00:41:09;99865.44;;;11.89;65.93
72548;BME280;60570;50.848;6.776;2023-03-18T00:42:14;99863.00;;;11.88;65.98
72548;BME280;60570;50.848;6.776;2023-03-18T00:43:15;99862.19;;;11.87;66.36
72548;BME280;60570;50.848;6.776;2023-03-18T00:44:15;99860.59;;;11.86;66.29
72548;BME280;60570;50.848;6.776;2023-03-18T00:45:16;99868.22;;;11.89;66.30
72548;BME280;60570;50.848;6.776;2023-03-18T00:47:18;99870.56;;;11.87;66.37
72548;BME280;60570;50.848;6.776;2023-03-18T00:48:20;99869.75;;;11.87;66.13
72548;BME280;60570;50.848;6.776;2023-03-18T00:49:21;99867.75;;;11.87;66.50
72548;BME280;60570;50.848;6.776;2023-03-18T00:50:22;99867.44;;;11.89;66.40
72548;BME280;60570;50.848;6.776;2023-03-18T00:51:24;99860.22;;;11.88;66.24
72548;BME280;60570;50.848;6.776;2023-03-18T00:52:25;99860.22;;;11.88;66.10
72548;BME280;60570;50.848;6.776;2023-03-18T00:53:26;99864.66;;;11.89;66.63
72548;BME280;60570;50.848;6.776;2023-03-18T00:54:27;99858.25;;;11.88;66.20
72548;BME280;60570;50.848;6.776;2023-03-18T00:55:27;99858.63;;;11.87;66.21
72548;BME280;60570;50.848;6.776;2023-03-18T00:56:30;99859.78;;;11.86;66.67
72548;BME280;60570;50.848;6.776;2023-03-18T00:57:31;99863.84;;;11.88;66.40
72548;BME280;60570;50.848;6.776;2023-03-18T00:58:32;99861.88;;;11.89;66.18
72548;BME280;60570;50.848;6.776;2023-03-18T00:59:32;99869.75;;;11.87;66.75
72548;BME280;60570;50.848;6.776;2023-03-18T01:00:34;99861.88;;;11.89;66.41
72548;BME280;60570;50.848;6.776;2023-03-18T01:01:35;99864.97;;;11.87;66.41
72548;BME280;60570;50.848;6.776;2023-03-18T01:02:36;99851.44;;;11.86;66.38
72548;BME280;60570;50.848;6.776;2023-03-18T01:03:37;99866.97;;;11.87;66.66
72548;BME280;60570;50.848;6.776;2023-03-18T01:04:38;99857.81;;;11.86;66.47
72548;BME280;60570;50.848;6.776;2023-03-18T01:05:39;99852.25;;;11.86;66.36
72548;BME280;60570;50.848;6.776;2023-03-18T01:06:39;99855.84;;;11.87;66.54
72548;BME280;60570;50.848;6.776;2023-03-18T01:07:40;99855.84;;;11.87;66.83
72548;BME280;60570;50.848;6.776;2023-03-18T01:08:41;99848.28;;;11.87;66.57
72548;BME280;60570;50.848;6.776;2023-03-18T01:09:41;99857.00;;;11.86;67.01
72548;BME280;60570;50.848;6.776;2023-03-18T01:10:42;99859.78;;;11.86;66.55
72548;BME280;60570;50.848;6.776;2023-03-18T01:11:43;99867.34;;;11.85;67.20
72548;BME280;60570;50.848;6.776;2023-03-18T01:12:43;99862.56;;;11.86;67.33
72548;BME280;60570;50.848;6.776;2023-03-18T01:13:47;99860.97;;;11.85;66.70
72548;BME280;60570;50.848;6.776;2023-03-18T01:14:48;99861.41;;;11.87;66.87
72548;BME280;60570;50.848;6.776;2023-03-18T01:15:49;99866.97;;;11.87;66.65
72548;BME280;60570;50.848;6.776;2023-03-18T01:16:50;99865.34;;;11.86;66.45
72548;BME280;60570;50.848;6.776;2023-03-18T01:17:51;99865.34;;;11.86;66.98
72548;BME280;60570;50.848;6.776;2023-03-18T01:18:53;99864.19;;;11.87;67.17
72548;BME280;60570;50.848;6.776;2023-03-18T01:19:54;99866.16;;;11.86;66.79
72548;BME280;60570;50.848;6.776;2023-03-18T01:20:55;99870.13;;;11.85;66.66
72548;BME280;60570;50.848;6.776;2023-03-18T01:21:56;99864.56;;;11.85;66.93
72548;BME280;60570;50.848;6.776;2023-03-18T01:22:56;99872.91;;;11.85;66.68
72548;BME280;60570;50.848;6.776;2023-03-18T01:23:57;99858.19;;;11.85;66.67
72548;BME280;60570;50.848;6.776;2023-03-18T01:24:59;99865.72;;;11.84;66.87
72548;BME280;60570;50.848;6.776;2023-03-18T01:26:00;99853.44;;;11.85;67.13
72548;BME280;60570;50.848;6.776;2023-03-18T01:27:01;99856.56;;;11.84;66.87
72548;BME280;60570;50.848;6.776;2023-03-18T01:28:02;99852.97;;;11.83;67.07
72548;BME280;60570;50.848;6.776;2023-03-18T01:29:04;99852.97;;;11.83;67.21
72548;BME280;60570;50.848;6.776;2023-03-18T01:30:05;99852.97;;;11.83;66.90
72548;BME280;60570;50.848;6.776;2023-03-18T01:31:06;99848.19;;;11.84;66.91
72548;BME280;60570;50.848;6.776;2023-03-18T01:32:07;99844.63;;;11.83;67.27
72548;BME280;60570;50.848;6.776;2023-03-18T01:33:09;99844.28;;;11.85;67.04
72548;BME280;60570;50.848;6.776;2023-03-18T01:34:09;99837.06;;;11.84;67.12
72548;BME280;60570;50.848;6.776;2023-03-18T01:35:10;99837.88;;;11.84;67.13
72548;BME280;60570;50.848;6.776;2023-03-18T01:36:11;99838.69;;;11.85;67.28
72548;BME280;60570;50.848;6.776;2023-03-18T01:37:12;99838.69;;;11.85;67.26
72548;BME280;60570;50.848;6.776;2023-03-18T01:38:12;99834.28;;;11.84;66.93
72548;BME280;60570;50.848;6.776;2023-03-18T01:39:13;99834.66;;;11.82;66.80
72548;BME280;60570;50.848;6.776;2023-03-18T01:40:15;99837.06;;;11.84;67.11
72548;BME280;60570;50.848;6.776;2023-03-18T01:41:15;99832.31;;;11.84;67.03
72548;BME280;60570;50.848;6.776;2023-03-18T01:42:16;99836.75;;;11.85;66.83
72548;BME280;60570;50.848;6.776;2023-03-18T01:43:20;99825.59;;;11.85;66.94
72548;BME280;60570;50.848;6.776;2023-03-18T01:44:23;99827.56;;;11.85;66.54
72548;BME280;60570;50.848;6.776;2023-03-18T01:45:27;99827.56;;;11.85;67.25
72548;BME280;60570;50.848;6.776;2023-03-18T01:46:42;99818.03;;;11.86;66.85
72548;BME280;60570;50.848;6.776;2023-03-18T01:47:45;99821.56;;;11.83;67.46
72548;BME280;60570;50.848;6.776;2023-03-18T01:48:45;99825.16;;;11.83;67.29
72548;BME280;60570;50.848;6.776;2023-03-18T01:49:48;99823.97;;;11.84;67.00
72548;BME280;60570;50.848;6.776;2023-03-18T01:51:01;99828.72;;;11.84;67.43
72548;BME280;60570;50.848;6.776;2023-03-18T01:52:06;99838.25;;;11.83;67.07
72548;BME280;60570;50.848;6.776;2023-03-18T01:53:14;99841.03;;;11.83;67.17
72548;BME280;60570;50.848;6.776;2023-03-18T01:54:15;99836.63;;;11.82;66.89
72548;BME280;60570;50.848;6.776;2023-03-18T01:55:20;99844.63;;;11.83;66.69
72548;BME280;60570;50.848;6.776;2023-03-18T01:56:22;99845.78;;;11.82;67.50
72548;BME280;60570;50.848;6.776;2023-03-18T01:57:22;99839.06;;;11.83;67.15
72548;BME280;60570;50.848;6.776;2023-03-18T01:58:26;99837.81;;;11.81;67.01
72548;BME280;60570;50.848;6.776;2023-03-18T01:59:29;99843.81;;;11.83;67.51
72548;BME280;60570;50.848;6.776;2023-03-18T02:00:35;99846.59;;;11.83;66.86
72548;BME280;60570;50.848;6.776;2023-03-18T02:03:04;99838.25;;;11.83;66.87
72548;BME280;60570;50.848;6.776;2023-03-18T02:04:07;99831.88;;;11.82;67.78
72548;BME280;60570;50.848;6.776;2023-03-18T02:05:11;99839.41;;;11.82;67.25
72548;BME280;60570;50.848;6.776;2023-03-18T02:06:13;99839.06;;;11.83;66.84
72548;BME280;60570;50.848;6.776;2023-03-18T02:07:16;99847.41;;;11.83;67.16
72548;BME280;60570;50.848;6.776;2023-03-18T02:08:16;99844.97;;;11.82;67.21
72548;BME280;60570;50.848;6.776;2023-03-18T02:09:17;99842.19;;;11.82;66.75
72548;BME280;60570;50.848;6.776;2023-03-18T02:10:20;99846.97;;;11.81;67.37
72548;BME280;60570;50.848;6.776;2023-03-18T02:11:23;99836.63;;;11.82;66.87
72548;BME280;60570;50.848;6.776;2023-03-18T02:12:27;99838.63;;;11.81;66.69
72548;BME280;60570;50.848;6.776;2023-03-18T02:13:28;99837.44;;;11.82;66.82
72548;BME280;60570;50.848;6.776;2023-03-18T02:14:31;99837.81;;;11.81;66.74
72548;BME280;60570;50.848;6.776;2023-03-18T02:15:34;99840.59;;;11.81;67.19
72548;BME280;60570;50.848;6.776;2023-03-18T02:16:49;99838.97;;;11.80;67.09
72548;BME280;60570;50.848;6.776;2023-03-18T02:17:53;99832.25;;;11.81;67.06
72548;BME280;60570;50.848;6.776;2023-03-18T02:19:00;99826.69;;;11.81;67.01
72548;BME280;60570;50.848;6.776;2023-03-18T02:21:54;99836.16;;;11.80;67.19
72548;BME280;60570;50.848;6.776;2023-03-18T02:23:08;99834.56;;;11.79;66.88
72548;BME280;60570;50.848;6.776;2023-03-18T02:24:21;99831.78;;;11.79;67.11
72548;BME280;60570;50.848;6.776;2023-03-18T02:27:47;99822.63;;;11.78;67.41
72548;BME280;60570;50.848;6.776;2023-03-18T02:28:49;99823.44;;;11.79;67.31
72548;BME280;60570;50.848;6.776;2023-03-18T02:29:53;99821.09;;;11.81;66.98
72548;BME280;60570;50.848;6.776;2023-03-18T02:30:58;99818.69;;;11.79;66.92
72548;BME280;60570;50.848;6.776;2023-03-18T02:32:02;99825.03;;;11.80;66.84
72548;BME280;60570;50.848;6.776;2023-03-18T02:33:04;99821.47;;;11.79;66.83
72548;BME280;60570;50.848;6.776;2023-03-18T02:34:06;99829.38;;;11.77;67.15
72548;BME280;60570;50.848;6.776;2023-03-18T02:35:10;99830.16;;;11.78;67.21
72548;BME280;60570;50.848;6.776;2023-03-18T02:36:20;99842.09;;;11.78;67.25
72548;BME280;60570;50.848;6.776;2023-03-18T02:37:21;99840.13;;;11.79;67.22
72548;BME280;60570;50.848;6.776;2023-03-18T02:38:22;99836.91;;;11.77;67.14
72548;BME280;60570;50.848;6.776;2023-03-18T02:39:22;99836.09;;;11.76;67.10
72548;BME280;60570;50.848;6.776;2023-03-18T02:40:49;99834.13;;;11.77;67.08
72548;BME280;60570;50.848;6.776;2023-03-18T02:41:49;99835.66;;;11.74;67.40
72548;BME280;60570;50.848;6.776;2023-03-18T02:42:50;99834.50;;;11.75;67.37
72548;BME280;60570;50.848;6.776;2023-03-18T02:43:51;99832.88;;;11.74;67.27
72548;BME280;60570;50.848;6.776;2023-03-18T02:44:52;99834.03;;;11.73;67.08
72548;BME280;60570;50.848;6.776;2023-03-18T02:47:20;99832.03;;;11.73;67.38
72548;BME280;60570;50.848;6.776;2023-03-18T02:48:27;99833.22;;;11.73;67.25
72548;BME280;60570;50.848;6.776;2023-03-18T02:49:29;99839.59;;;11.73;67.51
72548;BME280;60570;50.848;6.776;2023-03-18T02:50:31;99843.19;;;11.73;67.49
72548;BME280;60570;50.848;6.776;2023-03-18T02:51:35;99851.09;;;11.72;67.46
72548;BME280;60570;50.848;6.776;2023-03-18T02:52:36;99850.28;;;11.71;67.46
72548;BME280;60570;50.848;6.776;2023-03-18T02:53:37;99853.53;;;11.73;67.29
72548;BME280;60570;50.848;6.776;2023-03-18T02:54:37;99849.47;;;11.70;67.78
72548;BME280;60570;50.848;6.776;2023-03-18T02:55:38;99855.84;;;11.71;67.46
72548;BME280;60570;50.848;6.776;2023-03-18T02:56:40;99851.09;;;11.72;67.08
72548;BME280;60570;50.848;6.776;2023-03-18T02:57:41;99850.75;;;11.73;67.27
72548;BME280;60570;50.848;6.776;2023-03-18T02:58:42;99862.22;;;11.72;67.21
72548;BME280;60570;50.848;6.776;2023-03-18T02:59:42;99861.41;;;11.71;67.51
72548;BME280;60570;50.848;6.776;2023-03-18T03:00:43;99858.63;;;11.71;67.11
72548;BME280;60570;50.848;6.776;2023-03-18T03:01:45;99862.22;;;11.72;67.27
72548;BME280;60570;50.848;6.776;2023-03-18T03:02:46;99851.81;;;11.68;67.55
72548;BME280;60570;50.848;6.776;2023-03-18T03:03:47;99852.63;;;11.69;67.38
72548;BME280;60570;50.848;6.776;2023-03-18T03:04:47;99854.59;;;11.68;67.53
72548;BME280;60570;50.848;6.776;2023-03-18T03:05:48;99857.00;;;11.70;67.54
72548;BME280;60570;50.848;6.776;2023-03-18T03:06:49;99856.22;;;11.69;67.38
72548;BME280;60570;50.848;6.776;2023-03-18T03:07:51;99851.81;;;11.68;67.24
72548;BME280;60570;50.848;6.776;2023-03-18T03:08:51;99858.19;;;11.69;67.33
72548;BME280;60570;50.848;6.776;2023-03-18T03:09:52;99863.75;;;11.69;67.48
72548;BME280;60570;50.848;6.776;2023-03-18T03:10:52;99862.13;;;11.68;67.29
72548;BME280;60570;50.848;6.776;2023-03-18T03:11:53;99866.91;;;11.67;67.72
72548;BME280;60570;50.848;6.776;2023-03-18T03:12:54;99862.13;;;11.68;67.38
72548;BME280;60570;50.848;6.776;2023-03-18T03:13:55;99872.47;;;11.67;67.39
72548;BME280;60570;50.848;6.776;2023-03-18T03:14:56;99865.25;;;11.66;67.60
72548;BME280;60570;50.848;6.776;2023-03-18T03:15:56;99867.69;;;11.68;67.67
72548;BME280;60570;50.848;6.776;2023-03-18T03:16:57;99862.81;;;11.65;67.51
72548;BME280;60570;50.848;6.776;2023-03-18T03:17:58;99871.66;;;11.67;67.55
72548;BME280;60570;50.848;6.776;2023-03-18T03:18:58;99866.44;;;11.65;67.40
72548;BME280;60570;50.848;6.776;2023-03-18T03:19:59;99867.56;;;11.64;67.63
72548;BME280;60570;50.848;6.776;2023-03-18T03:20:59;99870.81;;;11.66;67.26
72548;BME280;60570;50.848;6.776;2023-03-18T03:22:00;99875.56;;;11.66;67.50
72548;BME280;60570;50.848;6.776;2023-03-18T03:23:01;99873.13;;;11.64;67.35
72548;BME280;60570;50.848;6.776;2023-03-18T03:24:04;99871.16;;;11.65;67.57
72548;BME280;60570;50.848;6.776;2023-03-18T03:25:05;99869.53;;;11.64;67.08
72548;BME280;60570;50.848;6.776;2023-03-18T03:26:06;99872.31;;;11.64;67.15
72548;BME280;60570;50.848;6.776;2023-03-18T03:27:06;99869.91;;;11.62;67.37
72548;BME280;60570;50.848;6.776;2023-03-18T03:28:07;99870.72;;;11.63;67.53
72548;BME280;60570;50.848;6.776;2023-03-18T03:29:08;99870.72;;;11.63;67.24
72548;BME280;60570;50.848;6.776;2023-03-18T03:30:10;99873.84;;;11.61;67.56
72548;BME280;60570;50.848;6.776;2023-03-18T03:31:12;99868.28;;;11.61;67.08
72548;BME280;60570;50.848;6.776;2023-03-18T03:32:13;99864.34;;;11.62;67.43
72548;BME280;60570;50.848;6.776;2023-03-18T03:33:13;99874.66;;;11.62;67.38
72548;BME280;60570;50.848;6.776;2023-03-18T03:34:14;99873.84;;;11.61;67.41
72548;BME280;60570;50.848;6.776;2023-03-18T03:35:16;99873.03;;;11.61;67.56
72548;BME280;60570;50.848;6.776;2023-03-18T03:36:18;99873.84;;;11.61;67.39
72548;BME280;60570;50.848;6.776;2023-03-18T03:37:18;99878.59;;;11.61;67.42
72548;BME280;60570;50.848;6.776;2023-03-18T03:38:19;99879.75;;;11.60;67.58
72548;BME280;60570;50.848;6.776;2023-03-18T03:39:19;99883.34;;;11.60;67.56
72548;BME280;60570;50.848;6.776;2023-03-18T03:40:20;99875.38;;;11.59;67.54
72548;BME280;60570;50.848;6.776;2023-03-18T03:41:20;99876.63;;;11.61;67.49
72548;BME280;60570;50.848;6.776;2023-03-18T03:42:21;99883.34;;;11.60;67.60
72548;BME280;60570;50.848;6.776;2023-03-18T03:43:21;99886.13;;;11.60;67.56
72548;BME280;60570;50.848;6.776;2023-03-18T03:44:22;99877.34;;;11.58;67.65
72548;BME280;60570;50.848;6.776;2023-03-18T03:45:23;99872.59;;;11.59;67.11
72548;BME280;60570;50.848;6.776;2023-03-18T03:46:24;99878.53;;;11.57;67.17
72548;BME280;60570;50.848;6.776;2023-03-18T03:47:24;99881.84;;;11.63;67.64
72548;BME280;60570;50.848;6.776;2023-03-18T03:48:25;99879.75;;;11.60;67.57
72548;BME280;60570;50.848;6.776;2023-03-18T03:49:25;99884.53;;;11.59;67.57
72548;BME280;60570;50.848;6.776;2023-03-18T03:50:26;99884.09;;;11.57;67.61
72548;BME280;60570;50.848;6.776;2023-03-18T03:51:26;99889.28;;;11.59;67.60
72548;BME280;60570;50.848;6.776;2023-03-18T03:52:27;99888.00;;;11.56;68.10
72548;BME280;60570;50.848;6.776;2023-03-18T03:53:28;99886.88;;;11.57;67.65
72548;BME280;60570;50.848;6.776;2023-03-18T03:54:29;99886.88;;;11.57;67.52
72548;BME280;60570;50.848;6.776;2023-03-18T03:55:30;99890.78;;;11.56;67.82
72548;BME280;60570;50.848;6.776;2023-03-18T03:56:30;99891.25;;;11.58;67.44
72548;BME280;60570;50.848;6.776;2023-03-18T03:57:31;99884.91;;;11.58;67.83
72548;BME280;60570;50.848;6.776;2023-03-18T03:58:32;99887.22;;;11.56;67.57
72548;BME280;60570;50.848;6.776;2023-03-18T03:59:33;99889.19;;;11.55;67.74
72548;BME280;60570;50.848;6.776;2023-03-18T04:00:33;99878.88;;;11.56;67.77
72548;BME280;60570;50.848;6.776;2023-03-18T04:01:34;99888.00;;;11.56;67.61
72548;BME280;60570;50.848;6.776;2023-03-18T04:02:35;99890.78;;;11.56;67.79
72548;BME280;60570;50.848;6.776;2023-03-18T04:03:36;99891.16;;;11.55;67.79
72548;BME280;60570;50.848;6.776;2023-03-18T04:04:36;99893.13;;;11.54;68.11
72548;BME280;60570;50.848;6.776;2023-03-18T04:05:38;99893.13;;;11.54;67.99
72548;BME280;60570;50.848;6.776;2023-03-18T04:06:38;99895.91;;;11.54;67.85
72548;BME280;60570;50.848;6.776;2023-03-18T04:07:39;99885.97;;;11.53;67.84
72548;BME280;60570;50.848;6.776;2023-03-18T04:08:40;99895.44;;;11.52;68.04
72548;BME280;60570;50.848;6.776;2023-03-18T04:09:41;99902.66;;;11.53;67.93
72548;BME280;60570;50.848;6.776;2023-03-18T04:10:41;99900.69;;;11.54;68.25
72548;BME280;60570;50.848;6.776;2023-03-18T04:11:42;99905.44;;;11.53;67.84
72548;BME280;60570;50.848;6.776;2023-03-18T04:12:44;99906.59;;;11.52;67.86
72548;BME280;60570;50.848;6.776;2023-03-18T04:13:45;99911.34;;;11.52;67.70
72548;BME280;60570;50.848;6.776;2023-03-18T04:14:45;99909.38;;;11.52;68.13
72548;BME280;60570;50.848;6.776;2023-03-18T04:15:46;99910.19;;;11.53;67.83
72548;BME280;60570;50.848;6.776;2023-03-18T04:16:47;99906.13;;;11.50;68.02
72548;BME280;60570;50.848;6.776;2023-03-18T04:17:49;99908.91;;;11.50;68.02
72548;BME280;60570;50.848;6.776;2023-03-18T04:18:49;99906.13;;;11.50;67.63
72548;BME280;60570;50.848;6.776;2023-03-18T04:19:49;99915.28;;;11.51;67.82
72548;BME280;60570;50.848;6.776;2023-03-18T04:20:50;99908.91;;;11.50;67.83
72548;BME280;60570;50.848;6.776;2023-03-18T04:21:51;99915.66;;;11.49;67.90
72548;BME280;60570;50.848;6.776;2023-03-18T04:22:52;99905.66;;;11.48;67.67
72548;BME280;60570;50.848;6.776;2023-03-18T04:23:53;99916.00;;;11.48;68.18
72548;BME280;60570;50.848;6.776;2023-03-18T04:24:53;99918.78;;;11.48;67.75
72548;BME280;60570;50.848;6.776;2023-03-18T04:25:54;99920.75;;;11.47;68.04
72548;BME280;60570;50.848;6.776;2023-03-18T04:26:54;99919.13;;;11.46;67.76
72548;BME280;60570;50.848;6.776;2023-03-18T04:27:55;99917.97;;;11.47;67.98
72548;BME280;60570;50.848;6.776;2023-03-18T04:28:56;99924.34;;;11.48;67.84
72548;BME280;60570;50.848;6.776;2023-03-18T04:29:57;99924.69;;;11.46;68.04
72548;BME280;60570;50.848;6.776;2023-03-18T04:30:58;99925.88;;;11.45;68.45
72548;BME280;60570;50.848;6.776;2023-03-18T04:31:58;99925.06;;;11.45;68.17
72548;BME280;60570;50.848;6.776;2023-03-18T04:32:59;99927.00;;;11.44;67.87
72548;BME280;60570;50.848;6.776;2023-03-18T04:34:02;99931.78;;;11.44;67.99
72548;BME280;60570;50.848;6.776;2023-03-18T04:35:02;99932.16;;;11.42;68.04
72548;BME280;60570;50.848;6.776;2023-03-18T04:36:03;99937.34;;;11.44;68.09
72548;BME280;60570;50.848;6.776;2023-03-18T04:37:04;99923.44;;;11.44;67.88
72548;BME280;60570;50.848;6.776;2023-03-18T04:38:04;99937.72;;;11.42;67.98
72548;BME280;60570;50.848;6.776;2023-03-18T04:39:05;99941.28;;;11.43;67.88
72548;BME280;60570;50.848;6.776;2023-03-18T04:40:05;99944.44;;;11.41;67.87
72548;BME280;60570;50.848;6.776;2023-03-18T04:41:07;99944.44;;;11.41;68.10
72548;BME280;60570;50.848;6.776;2023-03-18T04:42:07;99935.28;;;11.41;67.69
72548;BME280;60570;50.848;6.776;2023-03-18T04:43:08;99939.69;;;11.42;68.13
72548;BME280;60570;50.848;6.776;2023-03-18T04:44:09;99939.22;;;11.40;68.22
72548;BME280;60570;50.848;6.776;2023-03-18T04:45:10;99945.59;;;11.40;68.15
72548;BME280;60570;50.848;6.776;2023-03-18T04:46:10;99942.00;;;11.40;67.75
72548;BME280;60570;50.848;6.776;2023-03-18T04:47:14;99942.81;;;11.40;67.64
72548;BME280;60570;50.848;6.776;2023-03-18T04:48:14;99943.16;;;11.39;68.09
72548;BME280;60570;50.848;6.776;2023-03-18T04:49:15;99943.16;;;11.39;67.62
72548;BME280;60570;50.848;6.776;2023-03-18T04:50:15;99945.94;;;11.39;67.88
72548;BME280;60570;50.848;6.776;2023-03-18T04:51:16;99940.72;;;11.37;68.12
72548;BME280;60570;50.848;6.776;2023-03-18T04:52:17;99941.56;;;11.38;68.03
72548;BME280;60570;50.848;6.776;2023-03-18T04:53:19;99938.78;;;11.38;68.21
72548;BME280;60570;50.848;6.776;2023-03-18T04:54:19;99935.19;;;11.37;68.02
72548;BME280;60570;50.848;6.776;2023-03-18T04:55:20;99950.25;;;11.36;68.27
72548;BME280;60570;50.848;6.776;2023-03-18T04:56:21;99939.59;;;11.38;67.75
72548;BME280;60570;50.848;6.776;2023-03-18T04:57:21;99948.25;;;11.37;68.25
72548;BME280;60570;50.848;6.776;2023-03-18T04:58:22;99944.69;;;11.36;68.15
72548;BME280;60570;50.848;6.776;2023-03-18T04:59:22;99939.59;;;11.38;67.78
72548;BME280;60570;50.848;6.776;2023-03-18T05:00:23;99945.47;;;11.37;67.84
72548;BME280;60570;50.848;6.776;2023-03-18T05:01:23;99940.28;;;11.35;68.17
72548;BME280;60570;50.848;6.776;2023-03-18T05:02:24;99940.66;;;11.34;67.90
72548;BME280;60570;50.848;6.776;2023-03-18T05:03:24;99945.03;;;11.35;68.11
72548;BME280;60570;50.848;6.776;2023-03-18T05:04:25;99948.97;;;11.34;68.17
72548;BME280;60570;50.848;6.776;2023-03-18T05:05:25;99950.94;;;11.33;67.76
72548;BME280;60570;50.848;6.776;2023-03-18T05:06:28;99942.97;;;11.32;68.33
72548;BME280;60570;50.848;6.776;2023-03-18T05:07:29;99945.38;;;11.33;68.36
72548;BME280;60570;50.848;6.776;2023-03-18T05:08:29;99943.78;;;11.32;67.90
72548;BME280;60570;50.848;6.776;2023-03-18T05:09:30;99947.03;;;11.34;67.73
72548;BME280;60570;50.848;6.776;2023-03-18T05:10:30;99947.34;;;11.33;67.69
72548;BME280;60570;50.848;6.776;2023-03-18T05:11:31;99950.13;;;11.33;68.07
72548;BME280;60570;50.848;6.776;2023-03-18T05:12:32;99943.78;;;11.32;67.86
72548;BME280;60570;50.848;6.776;2023-03-18T05:13:33;99948.16;;;11.33;68.00
72548;BME280;60570;50.848;6.776;2023-03-18T05:14:33;99951.75;;;11.34;67.75
72548;BME280;60570;50.848;6.776;2023-03-18T05:15:34;99948.53;;;11.32;68.25
72548;BME280;60570;50.848;6.776;2023-03-18T05:16:34;99947.72;;;11.31;67.69
72548;BME280;60570;50.848;6.776;2023-03-18T05:17:36;99943.78;;;11.32;67.98
72548;BME280;60570;50.848;6.776;2023-03-18T05:18:37;99943.78;;;11.32;67.55
72548;BME280;60570;50.848;6.776;2023-03-18T05:19:38;99945.28;;;11.30;67.97
72548;BME280;60570;50.848;6.776;2023-03-18T05:20:38;99949.25;;;11.29;67.70
72548;BME280;60570;50.848;6.776;2023-03-18T05:21:38;99943.69;;;11.29;68.16
72548;BME280;60570;50.848;6.776;2023-03-18T05:22:40;99948.44;;;11.28;67.65
72548;BME280;60570;50.848;6.776;2023-03-18T05:23:41;99950.41;;;11.28;68.37
72548;BME280;60570;50.848;6.776;2023-03-18T05:24:45;99953.19;;;11.28;67.91
72548;BME280;60570;50.848;6.776;2023-03-18T05:25:47;99940.91;;;11.29;67.77
72548;BME280;60570;50.848;6.776;2023-03-18T05:26:48;99953.63;;;11.30;67.88
72548;BME280;60570;50.848;6.776;2023-03-18T05:27:49;99946.81;;;11.27;68.09
72548;BME280;60570;50.848;6.776;2023-03-18T05:28:49;99949.59;;;11.27;68.29
72548;BME280;60570;50.848;6.776;2023-03-18T05:29:49;99948.34;;;11.25;68.17
72548;BME280;60570;50.848;6.776;2023-03-18T05:30:50;99948.78;;;11.27;68.30
72548;BME280;60570;50.848;6.776;2023-03-18T05:31:51;99949.59;;;11.27;68.16
72548;BME280;60570;50.848;6.776;2023-03-18T05:32:52;99957.13;;;11.27;68.09
72548;BME280;60570;50.848;6.776;2023-03-18T05:33:52;99952.38;;;11.27;68.04